createdAt,value
2023-03-08T00:00:45.690Z,0.50
2023-03-08T00:03:15.427Z,0.50
2023-03-08T00:05:44.923Z,0.50
2023-03-08T00:08:13.175Z,0.50
2023-03-08T00:10:41.253Z,0.40
2023-03-08T00:13:09.274Z,0.40
2023-03-08T00:15:38.508Z,0.40
2023-03-08T00:18:06.911Z,0.40
2023-03-08T00:20:35.517Z,0.40
2023-03-08T00:23:04.862Z,0.40
2023-03-08T00:25:32.934Z,0.40
2023-03-08T00:28:00.922Z,0.40
2023-03-08T00:30:31.558Z,0.40
2023-03-08T00:32:59.615Z,0.40
2023-03-08T00:35:27.622Z,0.40
2023-03-08T00:37:55.669Z,0.40
2023-03-08T00:40:25.084Z,0.40
2023-03-08T00:42:53.151Z,0.40
2023-03-08T00:45:21.129Z,0.40
2023-03-08T00:47:49.138Z,0.30
2023-03-08T00:50:17.580Z,0.30
2023-03-08T00:52:45.598Z,0.30
2023-03-08T00:55:14.473Z,0.30
2023-03-08T00:57:44.183Z,0.30
2023-03-08T01:00:14.046Z,0.30
2023-03-08T01:02:42.158Z,0.30
2023-03-08T01:05:11.023Z,0.30
2023-03-08T01:07:39.349Z,0.30
2023-03-08T01:10:09.667Z,0.30
2023-03-08T01:12:39.332Z,0.30
2023-03-08T01:15:09.575Z,0.30
2023-03-08T01:17:37.639Z,0.30
2023-03-08T01:20:07.192Z,0.20
2023-03-08T01:22:35.267Z,0.20
2023-03-08T01:25:03.304Z,0.20
2023-03-08T01:27:31.533Z,0.20
2023-03-08T01:29:59.668Z,0.20
2023-03-08T01:32:29.209Z,0.20
2023-03-08T01:35:01.992Z,0.20
2023-03-08T01:37:30.275Z,0.20
2023-03-08T01:39:58.480Z,0.20
2023-03-08T01:42:26.816Z,0.20
2023-03-08T01:44:56.817Z,0.20
2023-03-08T01:47:27.084Z,0.10
2023-03-08T01:50:22.003Z,0.10
2023-03-08T01:52:54.738Z,0.10
2023-03-08T01:55:22.996Z,0.10
2023-03-08T01:57:55.375Z,0.10
2023-03-08T02:00:25.303Z,0.10
2023-03-08T02:02:56.042Z,0.10
2023-03-08T02:05:27.356Z,0.10
2023-03-08T02:08:00.519Z,0.10
2023-03-08T02:10:33.815Z,0.10
2023-03-08T02:13:02.131Z,0.10
2023-03-08T02:15:30.356Z,0.10
2023-03-08T02:17:59.184Z,0.10
2023-03-08T02:20:31.301Z,0.00
2023-03-08T02:23:10.868Z,0.10
2023-03-08T02:25:39.370Z,0.10
2023-03-08T02:28:10.355Z,0.10
2023-03-08T02:30:39.491Z,0.10
2023-03-08T02:33:07.522Z,0.10
2023-03-08T02:35:42.684Z,0.00
2023-03-08T02:38:17.786Z,0.00
2023-03-08T02:40:46.425Z,0.00
2023-03-08T02:43:14.580Z,0.00
2023-03-08T02:45:42.604Z,0.00
2023-03-08T02:48:10.687Z,0.00
2023-03-08T02:50:38.882Z,0.00
2023-03-08T02:53:07.661Z,0.00
2023-03-08T02:55:37.475Z,0.10
2023-03-08T02:58:11.200Z,0.10
2023-03-08T03:00:39.798Z,0.10
2023-03-08T03:03:08.073Z,0.10
2023-03-08T03:05:36.166Z,0.10
2023-03-08T03:08:08.048Z,0.10
2023-03-08T03:13:05.859Z,0.10
2023-03-08T03:15:34.517Z,0.10
2023-03-08T03:18:02.610Z,0.20
2023-03-08T03:20:30.663Z,0.20
2023-03-08T03:22:59.873Z,0.10
2023-03-08T03:25:39.809Z,0.20
2023-03-08T03:28:11.896Z,0.20
2023-03-08T03:30:41.559Z,0.10
2023-03-08T03:33:11.954Z,0.20
2023-03-08T03:35:41.117Z,0.10
2023-03-08T03:38:11.023Z,0.20
2023-03-08T03:40:40.997Z,0.20
2023-03-08T03:43:09.092Z,0.20
2023-03-08T03:45:37.358Z,0.20
2023-03-08T03:48:05.807Z,0.20
2023-03-08T03:50:34.384Z,0.20
2023-03-08T03:53:07.925Z,0.20
2023-03-08T03:55:36.477Z,0.20
2023-03-08T03:58:06.516Z,0.10
2023-03-08T04:00:34.931Z,0.20
2023-03-08T04:03:14.281Z,0.20
2023-03-08T04:05:43.840Z,0.10
2023-03-08T04:08:12.458Z,0.20
2023-03-08T04:10:43.125Z,0.20
2023-03-08T04:13:13.365Z,0.20
2023-03-08T04:15:42.969Z,0.10
2023-03-08T04:18:13.473Z,0.10
2023-03-08T04:20:45.786Z,0.10
2023-03-08T04:23:15.481Z,0.10
2023-03-08T04:25:47.640Z,0.10
2023-03-08T04:28:18.325Z,0.10
2023-03-08T04:30:46.837Z,0.10
2023-03-08T04:33:17.140Z,0.10
2023-03-08T04:35:49.193Z,0.10
2023-03-08T04:38:19.880Z,0.10
2023-03-08T04:41:05.468Z,0.10
2023-03-08T04:43:46.939Z,0.10
2023-03-08T04:46:16.258Z,0.10
2023-03-08T04:48:45.755Z,0.10
2023-03-08T04:51:17.364Z,0.00
2023-03-08T04:53:47.350Z,0.00
2023-03-08T04:56:17.272Z,0.00
2023-03-08T04:58:47.873Z,0.00
2023-03-08T05:01:19.775Z,0.00
2023-03-08T05:03:50.119Z,0.00
2023-03-08T05:06:20.841Z,0.00
2023-03-08T05:08:49.647Z,0.00
2023-03-08T05:11:20.703Z,0.00
2023-03-08T05:13:50.491Z,0.00
2023-03-08T05:16:18.704Z,0.00
2023-03-08T05:18:46.844Z,0.00
2023-03-08T05:21:18.709Z,0.00
2023-03-08T05:23:49.513Z,0.00
2023-03-08T05:26:20.258Z,-0.10
2023-03-08T05:28:50.481Z,0.00
2023-03-08T05:31:22.355Z,0.00
2023-03-08T05:33:53.809Z,-0.10
2023-03-08T05:36:42.654Z,-0.10
2023-03-08T05:39:12.060Z,-0.10
2023-03-08T05:42:02.626Z,-0.10
2023-03-08T05:44:39.632Z,-0.10
2023-03-08T05:47:09.855Z,-0.10
2023-03-08T05:49:38.465Z,-0.10
2023-03-08T05:52:08.071Z,-0.10
2023-03-08T05:54:36.942Z,-0.10
2023-03-08T05:57:10.342Z,-0.10
2023-03-08T05:59:40.454Z,-0.10
2023-03-08T06:02:11.027Z,0.00
2023-03-08T06:04:44.166Z,-0.10
2023-03-08T06:07:13.940Z,-0.10
2023-03-08T06:09:46.932Z,-0.10
2023-03-08T06:12:17.409Z,-0.10
2023-03-08T06:14:49.875Z,-0.10
2023-03-08T06:17:20.531Z,-0.10
2023-03-08T06:19:51.084Z,-0.10
2023-03-08T06:22:19.789Z,-0.10
2023-03-08T06:24:49.885Z,-0.10
2023-03-08T06:27:23.696Z,-0.10
2023-03-08T06:29:55.488Z,-0.10
2023-03-08T06:32:24.447Z,0.00
2023-03-08T06:34:53.451Z,0.00
2023-03-08T06:37:21.574Z,-0.10
2023-03-08T06:39:50.084Z,-0.10
2023-03-08T06:42:20.998Z,0.00
2023-03-08T06:44:55.232Z,0.00
2023-03-08T06:47:23.369Z,0.00
2023-03-08T06:49:53.526Z,0.00
2023-03-08T06:52:21.599Z,0.00
2023-03-08T06:54:49.817Z,0.10
2023-03-08T06:57:17.822Z,0.10
2023-03-08T06:59:45.921Z,0.10
2023-03-08T07:02:15.404Z,0.10
2023-03-08T07:04:43.493Z,0.10
2023-03-08T07:07:11.725Z,0.10
2023-03-08T07:09:39.812Z,0.20
2023-03-08T07:12:08.253Z,0.20
2023-03-08T07:14:36.371Z,0.30
2023-03-08T07:17:04.432Z,0.30
2023-03-08T07:19:33.930Z,0.30
2023-03-08T07:22:01.923Z,0.30
2023-03-08T07:24:29.959Z,0.40
2023-03-08T07:26:58.018Z,0.50
2023-03-08T07:29:26.098Z,0.50
2023-03-08T07:31:54.160Z,0.50
2023-03-08T07:34:22.276Z,0.50
2023-03-08T07:36:52.352Z,0.60
2023-03-08T07:39:20.379Z,0.60
2023-03-08T07:41:48.930Z,0.60
2023-03-08T07:44:17.012Z,0.70
2023-03-08T07:46:46.837Z,0.70
2023-03-08T07:49:14.931Z,0.80
2023-03-08T07:51:42.986Z,0.80
2023-03-08T07:54:13.848Z,0.80
2023-03-08T07:56:42.247Z,0.80
2023-03-08T07:59:10.313Z,0.90
2023-03-08T08:01:38.596Z,0.90
2023-03-08T08:04:08.873Z,0.90
2023-03-08T08:06:37.669Z,1.00
2023-03-08T08:09:06.064Z,1.00
2023-03-08T08:11:35.655Z,1.10
2023-03-08T08:14:03.709Z,1.10
2023-03-08T08:16:31.959Z,1.10
2023-03-08T08:19:00.087Z,1.20
2023-03-08T08:21:28.234Z,1.20
2023-03-08T08:23:57.942Z,1.20
2023-03-08T08:26:26.092Z,1.20
2023-03-08T08:28:55.797Z,1.30
2023-03-08T08:31:26.876Z,1.30
2023-03-08T08:33:55.209Z,1.40
2023-03-08T08:36:23.285Z,1.40
2023-03-08T08:38:51.614Z,1.50
2023-03-08T08:41:22.122Z,1.50
2023-03-08T08:43:50.690Z,1.60
2023-03-08T08:46:20.147Z,1.60
2023-03-08T08:48:48.218Z,1.70
2023-03-08T08:51:16.281Z,1.70
2023-03-08T08:53:45.133Z,1.70
2023-03-08T08:56:26.164Z,1.80
2023-03-08T08:58:56.751Z,1.90
2023-03-08T09:01:28.122Z,1.90
2023-03-08T09:03:56.715Z,2.00
2023-03-08T09:06:26.008Z,2.00
2023-03-08T09:08:55.835Z,2.10
2023-03-08T09:11:26.068Z,2.20
2023-03-08T09:13:54.725Z,2.20
2023-03-08T09:16:26.100Z,2.30
2023-03-08T09:18:56.263Z,2.30
2023-03-08T09:21:25.009Z,2.40
2023-03-08T09:23:53.429Z,2.50
2023-03-08T09:26:21.500Z,2.60
2023-03-08T09:28:49.600Z,2.60
2023-03-08T09:31:19.337Z,2.70
2023-03-08T09:33:51.858Z,2.70
2023-03-08T09:36:20.225Z,2.80
2023-03-08T09:38:50.273Z,2.80
2023-03-08T09:41:33.606Z,2.90
2023-03-08T09:44:13.712Z,2.90
2023-03-08T09:46:47.100Z,2.90
2023-03-08T09:49:21.286Z,3.00
2023-03-08T09:51:53.929Z,3.00
2023-03-08T09:54:25.726Z,3.00
2023-03-08T09:56:56.346Z,3.10
2023-03-08T09:59:29.171Z,3.20
2023-03-08T10:02:05.635Z,3.30
2023-03-08T10:04:46.905Z,3.30
2023-03-08T10:07:27.913Z,3.40
2023-03-08T10:10:13.738Z,3.40
2023-03-08T10:12:57.875Z,3.50
2023-03-08T10:15:27.855Z,3.60
2023-03-08T10:18:01.539Z,3.60
2023-03-08T10:20:33.899Z,3.60
2023-03-08T10:23:04.160Z,3.70
2023-03-08T10:25:34.385Z,3.70
2023-03-08T10:28:04.639Z,3.80
2023-03-08T10:30:35.464Z,3.80
2023-03-08T10:33:09.423Z,3.90
2023-03-08T10:35:51.128Z,3.90
2023-03-08T10:38:19.354Z,3.90
2023-03-08T10:40:47.685Z,3.80
2023-03-08T10:43:25.098Z,3.90
2023-03-08T10:46:00.605Z,3.90
2023-03-08T10:48:28.696Z,3.90
2023-03-08T10:51:03.076Z,3.90
2023-03-08T10:53:32.034Z,4.00
2023-03-08T10:56:02.074Z,4.00
2023-03-08T10:58:33.622Z,4.10
2023-03-08T11:01:03.933Z,4.10
2023-03-08T11:03:32.701Z,4.10
2023-03-08T11:06:04.659Z,4.10
2023-03-08T11:08:34.918Z,4.20
2023-03-08T11:11:09.563Z,4.20
2023-03-08T11:13:39.483Z,4.30
2023-03-08T11:16:25.956Z,4.30
2023-03-08T11:19:03.120Z,4.30
2023-03-08T11:21:40.690Z,4.30
2023-03-08T11:24:27.045Z,4.40
2023-03-08T11:27:14.987Z,4.40
2023-03-08T11:29:54.448Z,4.30
2023-03-08T11:32:41.071Z,4.40
2023-03-08T11:35:24.368Z,4.40
2023-03-08T11:38:00.799Z,4.40
2023-03-08T11:40:32.890Z,4.50
2023-03-08T11:43:16.879Z,4.50
2023-03-08T11:45:51.670Z,4.50
2023-03-08T11:48:35.399Z,4.50
2023-03-08T11:51:09.732Z,4.60
2023-03-08T11:53:52.314Z,4.60
2023-03-08T11:56:41.752Z,4.70
2023-03-08T11:59:17.628Z,4.70
2023-03-08T12:01:51.184Z,4.70
2023-03-08T12:04:21.962Z,4.70
2023-03-08T12:06:50.591Z,4.80
2023-03-08T12:09:27.070Z,4.80
2023-03-08T12:12:03.281Z,4.80
2023-03-08T12:14:33.721Z,4.80
2023-03-08T12:17:08.594Z,4.80
2023-03-08T12:19:43.409Z,4.80
2023-03-08T12:22:31.057Z,4.80
2023-03-08T12:25:09.229Z,4.80
2023-03-08T12:27:42.290Z,4.90
2023-03-08T12:30:20.696Z,4.80
2023-03-08T12:32:50.122Z,4.80
2023-03-08T12:35:30.492Z,4.80
2023-03-08T12:38:00.776Z,4.80
2023-03-08T12:40:44.212Z,4.90
2023-03-08T12:43:14.721Z,4.90
2023-03-08T12:45:45.353Z,4.90
2023-03-08T12:48:32.933Z,5.00
2023-03-08T12:51:05.906Z,5.00
2023-03-08T12:53:38.939Z,5.00
2023-03-08T12:56:23.832Z,5.10
2023-03-08T12:58:54.679Z,5.10
2023-03-08T13:01:39.460Z,5.10
2023-03-08T13:04:39.060Z,5.10
2023-03-08T13:07:19.819Z,5.20
2023-03-08T13:09:55.982Z,5.20
2023-03-08T13:12:39.997Z,5.20
2023-03-08T13:15:24.019Z,5.30
2023-03-08T13:18:03.815Z,5.30
2023-03-08T13:20:53.204Z,5.30
2023-03-08T13:23:28.296Z,5.40
2023-03-08T13:26:12.533Z,5.40
2023-03-08T13:28:47.974Z,5.40
2023-03-08T13:31:18.905Z,5.50
2023-03-08T13:33:49.881Z,5.50
2023-03-08T13:36:21.727Z,5.50
2023-03-08T13:38:58.707Z,5.50
2023-03-08T13:41:37.688Z,5.50
2023-03-08T13:44:08.713Z,5.50
2023-03-08T13:46:40.003Z,5.50
2023-03-08T13:49:16.940Z,5.50
2023-03-08T13:51:47.415Z,5.50
2023-03-08T13:54:18.120Z,5.50
2023-03-08T13:56:46.384Z,5.50
2023-03-08T13:59:21.181Z,5.50
2023-03-08T14:01:50.553Z,5.50
2023-03-08T14:04:22.633Z,5.40
2023-03-08T14:06:53.700Z,5.40
2023-03-08T14:09:22.220Z,5.40
2023-03-08T14:11:59.067Z,5.40
2023-03-08T14:14:32.235Z,5.40
2023-03-08T14:17:01.165Z,5.40
2023-03-08T14:19:31.963Z,5.40
2023-03-08T14:22:02.731Z,5.40
2023-03-08T14:24:32.977Z,5.40
2023-03-08T14:27:02.880Z,5.40
2023-03-08T14:29:34.431Z,5.40
2023-03-08T14:32:06.015Z,5.40
2023-03-08T14:34:36.444Z,5.40
2023-03-08T14:37:08.139Z,5.40
2023-03-08T14:39:38.438Z,5.40
2023-03-08T14:42:12.228Z,5.50
2023-03-08T14:44:41.781Z,5.50
2023-03-08T14:47:20.218Z,5.50
2023-03-08T14:49:56.908Z,5.50
2023-03-08T14:52:27.801Z,5.50
2023-03-08T14:54:55.931Z,5.40
2023-03-08T14:57:26.406Z,5.40
2023-03-08T15:00:07.543Z,5.40
2023-03-08T15:02:36.721Z,5.50
2023-03-08T15:05:05.780Z,5.40
2023-03-08T15:07:37.048Z,5.40
2023-03-08T15:10:08.031Z,5.50
2023-03-08T15:12:36.095Z,5.40
2023-03-08T15:15:13.497Z,5.40
2023-03-08T15:17:41.559Z,5.40
2023-03-08T15:20:12.278Z,5.40
2023-03-08T15:22:48.162Z,5.40
2023-03-08T15:25:20.118Z,5.40
2023-03-08T15:27:49.733Z,5.40
2023-03-08T15:30:22.357Z,5.30
2023-03-08T15:32:50.953Z,5.30
2023-03-08T15:35:19.839Z,5.30
2023-03-08T15:37:48.103Z,5.30
2023-03-08T15:40:18.987Z,5.20
2023-03-08T15:42:47.052Z,5.20
2023-03-08T15:45:15.937Z,5.20
2023-03-08T15:47:45.719Z,5.20
2023-03-08T15:50:17.312Z,5.20
2023-03-08T15:52:45.932Z,5.20
2023-03-08T15:55:15.296Z,5.20
2023-03-08T15:57:43.428Z,5.20
2023-03-08T16:00:15.761Z,5.10
2023-03-08T16:02:45.597Z,5.10
2023-03-08T16:05:15.040Z,5.10
2023-03-08T16:07:43.171Z,5.00
2023-03-08T16:10:13.626Z,5.00
2023-03-08T16:12:42.918Z,5.00
2023-03-08T16:15:11.682Z,5.00
2023-03-08T16:17:39.804Z,5.00
2023-03-08T16:20:10.725Z,5.00
2023-03-08T16:22:39.127Z,4.90
2023-03-08T16:25:08.161Z,4.90
2023-03-08T16:27:38.183Z,4.90
2023-03-08T16:30:07.729Z,4.90
2023-03-08T16:32:36.047Z,4.90
2023-03-08T16:35:04.275Z,4.90
2023-03-08T16:37:33.659Z,4.90
2023-03-08T16:40:02.472Z,4.90
2023-03-08T16:42:31.227Z,4.80
2023-03-08T16:44:59.350Z,4.80
2023-03-08T16:47:32.065Z,4.70
2023-03-08T16:50:00.919Z,4.70
2023-03-08T16:52:29.226Z,4.70
2023-03-08T16:54:59.007Z,4.70
2023-03-08T16:57:27.062Z,4.60
2023-03-08T16:59:55.273Z,4.60
2023-03-08T17:02:23.865Z,4.60
2023-03-08T17:04:52.032Z,4.60
2023-03-08T17:07:20.202Z,4.60
2023-03-08T17:09:48.274Z,4.60
2023-03-08T17:12:19.429Z,4.50
2023-03-08T17:14:47.509Z,4.50
2023-03-08T17:17:15.993Z,4.50
2023-03-08T17:19:44.039Z,4.50
2023-03-08T17:22:12.061Z,4.50
2023-03-08T17:24:40.302Z,4.50
2023-03-08T17:27:08.370Z,4.40
2023-03-08T17:29:38.095Z,4.40
2023-03-08T17:32:06.720Z,4.40
2023-03-08T17:34:34.794Z,4.40
2023-03-08T17:37:02.966Z,4.40
2023-03-08T17:39:31.001Z,4.30
2023-03-08T17:41:59.044Z,4.30
2023-03-08T17:44:27.110Z,4.30
2023-03-08T17:46:56.520Z,4.30
2023-03-08T17:49:25.051Z,4.30
2023-03-08T17:51:54.260Z,4.30
2023-03-08T17:54:22.280Z,4.20
2023-03-08T17:56:50.382Z,4.20
2023-03-08T17:59:18.832Z,4.20
2023-03-08T18:01:49.781Z,4.20
2023-03-08T18:04:21.966Z,4.20
2023-03-08T18:06:50.046Z,4.10
2023-03-08T18:09:18.246Z,4.10
2023-03-08T18:11:48.147Z,4.10
2023-03-08T18:14:16.616Z,4.10
2023-03-08T18:16:45.456Z,4.10
2023-03-08T18:19:13.613Z,4.00
2023-03-08T18:21:43.050Z,4.00
2023-03-08T18:24:12.650Z,4.00
2023-03-08T18:26:43.664Z,4.00
2023-03-08T18:29:12.492Z,4.00
2023-03-08T18:31:41.294Z,3.90
2023-03-08T18:34:09.588Z,3.90
2023-03-08T18:36:38.508Z,3.90
2023-03-08T18:39:12.046Z,3.90
2023-03-08T18:41:40.599Z,3.90
2023-03-08T18:44:08.685Z,3.80
2023-03-08T18:46:36.693Z,3.80
2023-03-08T18:49:07.732Z,3.80
2023-03-08T18:51:37.834Z,3.80
2023-03-08T18:54:09.129Z,3.70
2023-03-08T18:56:37.329Z,3.70
2023-03-08T18:59:07.300Z,3.60
2023-03-08T19:01:36.668Z,3.60
2023-03-08T19:04:06.984Z,3.60
2023-03-08T19:06:35.923Z,3.50
2023-03-08T19:09:11.121Z,3.50
2023-03-08T19:11:39.704Z,3.50
2023-03-08T19:14:08.349Z,3.40
2023-03-08T19:16:37.218Z,3.40
2023-03-08T19:19:08.774Z,3.40
2023-03-08T19:21:41.414Z,3.30
2023-03-08T19:24:13.169Z,3.30
2023-03-08T19:26:43.080Z,3.30
2023-03-08T19:29:14.076Z,3.20
2023-03-08T19:31:43.953Z,3.20
2023-03-08T19:34:13.502Z,3.20
2023-03-08T19:36:42.249Z,3.20
2023-03-08T19:39:14.537Z,3.10
2023-03-08T19:41:43.465Z,3.10
2023-03-08T19:44:11.622Z,3.10
2023-03-08T19:46:40.621Z,3.10
2023-03-08T19:49:13.829Z,3.00
2023-03-08T19:51:42.294Z,3.00
2023-03-08T19:54:11.846Z,3.00
2023-03-08T19:56:39.866Z,2.90
2023-03-08T19:59:07.981Z,3.00
2023-03-08T20:01:36.551Z,2.90
2023-03-08T20:04:04.810Z,2.90
2023-03-08T20:06:35.144Z,2.90
2023-03-08T20:09:04.761Z,2.90
2023-03-08T20:11:34.686Z,2.90
2023-03-08T20:14:03.343Z,2.80
2023-03-08T20:16:32.175Z,2.80
2023-03-08T20:19:00.362Z,2.80
2023-03-08T20:21:31.570Z,2.80
2023-03-08T20:24:00.518Z,2.80
2023-03-08T20:26:31.224Z,2.80
2023-03-08T20:29:01.270Z,2.80
2023-03-08T20:31:31.227Z,2.80
2023-03-08T20:33:59.725Z,2.80
2023-03-08T20:36:28.587Z,2.70
2023-03-08T20:38:58.423Z,2.70
2023-03-08T20:41:26.490Z,2.70
2023-03-08T20:43:56.128Z,2.70
2023-03-08T20:46:27.918Z,2.70
2023-03-08T20:48:56.997Z,2.70
2023-03-08T20:51:25.076Z,2.60
2023-03-08T20:53:55.025Z,2.60
2023-03-08T20:56:24.809Z,2.60
2023-03-08T20:58:54.510Z,2.60
2023-03-08T21:01:26.388Z,2.60
2023-03-08T21:03:54.506Z,2.60
2023-03-08T21:06:24.187Z,2.50
2023-03-08T21:08:52.888Z,2.50
2023-03-08T21:11:21.425Z,2.50
2023-03-08T21:13:50.991Z,2.50
2023-03-08T21:16:20.647Z,2.50
2023-03-08T21:18:52.382Z,2.50
2023-03-08T21:21:23.410Z,2.40
2023-03-08T21:23:54.186Z,2.40
2023-03-08T21:26:23.610Z,2.40
2023-03-08T21:28:52.655Z,2.40
2023-03-08T21:31:21.147Z,2.40
2023-03-08T21:33:49.286Z,2.40
2023-03-08T21:36:18.912Z,2.40
2023-03-08T21:38:51.371Z,2.30
2023-03-08T21:41:21.033Z,2.30
2023-03-08T21:43:49.434Z,2.20
2023-03-08T21:46:18.091Z,2.30
2023-03-08T21:48:46.250Z,2.30
2023-03-08T21:51:14.530Z,2.20
2023-03-08T21:53:44.871Z,2.20
2023-03-08T21:56:16.176Z,2.20
2023-03-08T21:58:44.952Z,2.20
2023-03-08T22:01:24.041Z,2.20
2023-03-08T22:03:52.480Z,2.20
2023-03-08T22:06:21.230Z,2.20
2023-03-08T22:08:51.135Z,2.20
2023-03-08T22:11:20.111Z,2.10
2023-03-08T22:13:51.202Z,2.20
2023-03-08T22:16:19.760Z,2.20
2023-03-08T22:18:48.785Z,2.20
2023-03-08T22:21:16.929Z,2.20
2023-03-08T22:23:44.996Z,2.20
2023-03-08T22:26:14.370Z,2.20
2023-03-08T22:28:42.456Z,2.20
2023-03-08T22:31:11.828Z,2.20
2023-03-08T22:33:40.996Z,2.20
2023-03-08T22:36:11.556Z,2.20
2023-03-08T22:38:40.045Z,2.20
2023-03-08T22:41:10.580Z,2.20
2023-03-08T22:43:40.466Z,2.20
2023-03-08T22:46:10.591Z,2.20
2023-03-08T22:48:38.754Z,2.20
2023-03-08T22:51:11.052Z,2.20
2023-03-08T22:53:40.399Z,2.20
2023-03-08T22:56:16.643Z,2.20
2023-03-08T22:58:46.167Z,2.20
2023-03-08T23:01:15.185Z,2.20
2023-03-08T23:03:43.660Z,2.20
2023-03-08T23:06:12.033Z,2.20
2023-03-08T23:08:40.545Z,2.20
2023-03-08T23:11:08.652Z,2.20
2023-03-08T23:13:36.734Z,2.20
2023-03-08T23:16:07.625Z,2.20
2023-03-08T23:18:36.355Z,2.20
2023-03-08T23:21:05.839Z,2.20
2023-03-08T23:23:34.191Z,2.20
2023-03-08T23:26:05.444Z,2.20
2023-03-08T23:28:35.517Z,2.20
2023-03-08T23:31:08.640Z,2.10
2023-03-08T23:33:36.669Z,2.20
2023-03-08T23:36:05.049Z,2.20
2023-03-08T23:38:33.169Z,2.10
2023-03-08T23:41:05.161Z,2.10
2023-03-08T23:43:33.494Z,2.10
2023-03-08T23:46:01.732Z,2.10
2023-03-08T23:48:31.184Z,2.10
2023-03-08T23:50:59.257Z,2.10
2023-03-08T23:53:27.255Z,2.10
2023-03-08T23:55:55.307Z,2.10
2023-03-08T23:58:23.426Z,2.10
